sensor_id;sensor_type;location;lat;lon;timestamp;P1;durP1;ratioP1;P2;durP2;ratioP2
24457;SDS011;12629;50.860;5.714;2022-09-24T00:02:00;11.43;;;8.18;;
24457;SDS011;12629;50.860;5.714;2022-09-24T00:04:28;14.50;;;8.70;;
24457;SDS011;12629;50.860;5.714;2022-09-24T00:06:56;14.88;;;8.30;;
24457;SDS011;12629;50.860;5.714;2022-09-24T00:09:25;12.52;;;8.38;;
24457;SDS011;12629;50.860;5.714;2022-09-24T00:11:52;17.40;;;8.85;;
24457;SDS011;12629;50.860;5.714;2022-09-24T00:14:19;14.55;;;8.70;;
24457;SDS011;12629;50.860;5.714;2022-09-24T00:16:46;12.73;;;8.82;;
24457;SDS011;12629;50.860;5.714;2022-09-24T00:19:14;12.73;;;8.88;;
24457;SDS011;12629;50.860;5.714;2022-09-24T00:21:41;14.40;;;8.30;;
24457;SDS011;12629;50.860;5.714;2022-09-24T00:24:10;13.50;;;8.95;;
24457;SDS011;12629;50.860;5.714;2022-09-24T00:27:02;12.90;;;7.95;;
24457;SDS011;12629;50.860;5.714;2022-09-24T00:29:29;13.65;;;9.20;;
24457;SDS011;12629;50.860;5.714;2022-09-24T00:31:59;15.50;;;9.48;;
24457;SDS011;12629;50.860;5.714;2022-09-24T00:34:28;15.30;;;8.90;;
24457;SDS011;12629;50.860;5.714;2022-09-24T00:36:55;16.10;;;9.38;;
24457;SDS011;12629;50.860;5.714;2022-09-24T00:39:23;17.23;;;8.45;;
24457;SDS011;12629;50.860;5.714;2022-09-24T00:41:50;18.15;;;8.95;;
24457;SDS011;12629;50.860;5.714;2022-09-24T00:47:25;11.23;;;8.68;;
24457;SDS011;12629;50.860;5.714;2022-09-24T00:50:06;14.57;;;8.80;;
24457;SDS011;12629;50.860;5.714;2022-09-24T00:52:44;18.83;;;8.77;;
24457;SDS011;12629;50.860;5.714;2022-09-24T00:55:15;11.18;;;8.55;;
24457;SDS011;12629;50.860;5.714;2022-09-24T00:57:45;13.55;;;9.07;;
24457;SDS011;12629;50.860;5.714;2022-09-24T01:00:14;13.15;;;8.70;;
24457;SDS011;12629;50.860;5.714;2022-09-24T01:02:45;16.10;;;9.43;;
24457;SDS011;12629;50.860;5.714;2022-09-24T01:05:14;13.02;;;9.32;;
24457;SDS011;12629;50.860;5.714;2022-09-24T01:07:42;16.98;;;9.20;;
24457;SDS011;12629;50.860;5.714;2022-09-24T01:10:12;15.35;;;8.38;;
24457;SDS011;12629;50.860;5.714;2022-09-24T01:13:01;15.35;;;8.55;;
24457;SDS011;12629;50.860;5.714;2022-09-24T01:15:40;14.10;;;8.82;;
24457;SDS011;12629;50.860;5.714;2022-09-24T01:18:15;14.05;;;8.52;;
24457;SDS011;12629;50.860;5.714;2022-09-24T01:20:52;16.10;;;8.57;;
24457;SDS011;12629;50.860;5.714;2022-09-24T01:23:41;15.40;;;8.63;;
24457;SDS011;12629;50.860;5.714;2022-09-24T01:26:21;14.13;;;9.00;;
24457;SDS011;12629;50.860;5.714;2022-09-24T01:31:58;16.88;;;8.90;;
24457;SDS011;12629;50.860;5.714;2022-09-24T01:34:32;17.00;;;9.43;;
24457;SDS011;12629;50.860;5.714;2022-09-24T01:37:05;15.65;;;9.35;;
24457;SDS011;12629;50.860;5.714;2022-09-24T01:39:32;14.38;;;9.10;;
24457;SDS011;12629;50.860;5.714;2022-09-24T01:42:03;14.07;;;9.13;;
24457;SDS011;12629;50.860;5.714;2022-09-24T01:44:33;15.65;;;8.98;;
24457;SDS011;12629;50.860;5.714;2022-09-24T01:47:04;18.20;;;9.27;;
24457;SDS011;12629;50.860;5.714;2022-09-24T01:49:33;12.68;;;8.55;;
24457;SDS011;12629;50.860;5.714;2022-09-24T01:52:02;11.65;;;8.77;;
24457;SDS011;12629;50.860;5.714;2022-09-24T01:54:35;14.95;;;8.27;;
24457;SDS011;12629;50.860;5.714;2022-09-24T01:57:09;12.25;;;9.27;;
24457;SDS011;12629;50.860;5.714;2022-09-24T01:59:41;17.63;;;8.95;;
24457;SDS011;12629;50.860;5.714;2022-09-24T02:02:16;14.13;;;8.15;;
24457;SDS011;12629;50.860;5.714;2022-09-24T02:04:52;13.18;;;7.88;;
24457;SDS011;12629;50.860;5.714;2022-09-24T02:09:53;12.88;;;8.10;;
24457;SDS011;12629;50.860;5.714;2022-09-24T02:12:21;13.25;;;7.70;;
24457;SDS011;12629;50.860;5.714;2022-09-24T02:14:54;14.27;;;8.88;;
24457;SDS011;12629;50.860;5.714;2022-09-24T02:17:29;12.30;;;7.88;;
24457;SDS011;12629;50.860;5.714;2022-09-24T02:20:02;15.93;;;7.97;;
24457;SDS011;12629;50.860;5.714;2022-09-24T02:22:32;14.20;;;8.75;;
24457;SDS011;12629;50.860;5.714;2022-09-24T02:25:00;11.32;;;7.93;;
24457;SDS011;12629;50.860;5.714;2022-09-24T02:27:31;12.55;;;8.07;;
24457;SDS011;12629;50.860;5.714;2022-09-24T02:29:59;10.32;;;7.40;;
24457;SDS011;12629;50.860;5.714;2022-09-24T02:32:28;12.90;;;7.40;;
24457;SDS011;12629;50.860;5.714;2022-09-24T02:35:00;11.63;;;7.55;;
24457;SDS011;12629;50.860;5.714;2022-09-24T02:37:32;13.18;;;7.97;;
24457;SDS011;12629;50.860;5.714;2022-09-24T02:40:01;12.83;;;7.63;;
24457;SDS011;12629;50.860;5.714;2022-09-24T02:42:30;11.82;;;7.35;;
24457;SDS011;12629;50.860;5.714;2022-09-24T02:44:57;10.93;;;7.28;;
24457;SDS011;12629;50.860;5.714;2022-09-24T02:47:24;11.75;;;7.22;;
24457;SDS011;12629;50.860;5.714;2022-09-24T02:49:54;11.25;;;7.53;;
24457;SDS011;12629;50.860;5.714;2022-09-24T02:52:21;12.45;;;7.13;;
24457;SDS011;12629;50.860;5.714;2022-09-24T02:54:49;9.63;;;7.18;;
24457;SDS011;12629;50.860;5.714;2022-09-24T02:57:16;13.68;;;6.90;;
24457;SDS011;12629;50.860;5.714;2022-09-24T02:59:44;10.00;;;6.80;;
24457;SDS011;12629;50.860;5.714;2022-09-24T03:02:12;13.00;;;7.28;;
24457;SDS011;12629;50.860;5.714;2022-09-24T03:04:39;13.18;;;6.80;;
24457;SDS011;12629;50.860;5.714;2022-09-24T03:07:08;12.30;;;7.30;;
24457;SDS011;12629;50.860;5.714;2022-09-24T03:09:35;11.02;;;6.97;;
24457;SDS011;12629;50.860;5.714;2022-09-24T03:12:02;9.65;;;6.47;;
24457;SDS011;12629;50.860;5.714;2022-09-24T03:14:30;11.63;;;6.88;;
24457;SDS011;12629;50.860;5.714;2022-09-24T03:16:57;13.90;;;7.05;;
24457;SDS011;12629;50.860;5.714;2022-09-24T03:19:24;12.65;;;7.10;;
24457;SDS011;12629;50.860;5.714;2022-09-24T03:21:51;12.43;;;7.25;;
24457;SDS011;12629;50.860;5.714;2022-09-24T03:24:20;14.85;;;7.32;;
24457;SDS011;12629;50.860;5.714;2022-09-24T03:26:47;12.27;;;7.30;;
24457;SDS011;12629;50.860;5.714;2022-09-24T03:29:14;10.82;;;7.47;;
24457;SDS011;12629;50.860;5.714;2022-09-24T03:32:02;13.13;;;8.18;;
24457;SDS011;12629;50.860;5.714;2022-09-24T03:34:28;12.05;;;7.70;;
24457;SDS011;12629;50.860;5.714;2022-09-24T03:36:55;12.52;;;7.57;;
24457;SDS011;12629;50.860;5.714;2022-09-24T03:39:23;11.32;;;7.50;;
24457;SDS011;12629;50.860;5.714;2022-09-24T03:41:51;11.82;;;7.93;;
24457;SDS011;12629;50.860;5.714;2022-09-24T03:44:18;14.00;;;7.53;;
24457;SDS011;12629;50.860;5.714;2022-09-24T03:46:45;9.40;;;6.80;;
24457;SDS011;12629;50.860;5.714;2022-09-24T03:49:14;16.48;;;7.60;;
24457;SDS011;12629;50.860;5.714;2022-09-24T03:51:42;10.90;;;6.70;;
24457;SDS011;12629;50.860;5.714;2022-09-24T03:54:09;10.93;;;6.82;;
24457;SDS011;12629;50.860;5.714;2022-09-24T03:56:38;13.45;;;7.95;;
24457;SDS011;12629;50.860;5.714;2022-09-24T03:59:05;11.40;;;7.25;;
24457;SDS011;12629;50.860;5.714;2022-09-24T04:01:32;13.20;;;7.43;;
24457;SDS011;12629;50.860;5.714;2022-09-24T04:04:01;14.45;;;7.32;;
24457;SDS011;12629;50.860;5.714;2022-09-24T04:06:29;9.90;;;7.13;;
24457;SDS011;12629;50.860;5.714;2022-09-24T04:08:56;12.60;;;6.85;;
24457;SDS011;12629;50.860;5.714;2022-09-24T04:11:24;10.45;;;7.25;;
24457;SDS011;12629;50.860;5.714;2022-09-24T04:13:53;9.38;;;6.70;;
24457;SDS011;12629;50.860;5.714;2022-09-24T04:16:20;9.10;;;6.72;;
24457;SDS011;12629;50.860;5.714;2022-09-24T04:18:48;12.27;;;6.57;;
24457;SDS011;12629;50.860;5.714;2022-09-24T04:21:15;13.52;;;6.63;;
24457;SDS011;12629;50.860;5.714;2022-09-24T04:23:42;9.05;;;6.40;;
24457;SDS011;12629;50.860;5.714;2022-09-24T04:26:09;9.93;;;6.00;;
24457;SDS011;12629;50.860;5.714;2022-09-24T04:28:37;11.40;;;7.00;;
24457;SDS011;12629;50.860;5.714;2022-09-24T04:31:05;10.27;;;6.70;;
24457;SDS011;12629;50.860;5.714;2022-09-24T04:33:33;13.57;;;6.57;;
24457;SDS011;12629;50.860;5.714;2022-09-24T04:36:00;11.40;;;6.57;;
24457;SDS011;12629;50.860;5.714;2022-09-24T04:38:27;9.23;;;6.65;;
24457;SDS011;12629;50.860;5.714;2022-09-24T04:41:02;10.05;;;7.00;;
24457;SDS011;12629;50.860;5.714;2022-09-24T04:43:31;11.73;;;7.38;;
24457;SDS011;12629;50.860;5.714;2022-09-24T04:45:58;13.50;;;6.93;;
24457;SDS011;12629;50.860;5.714;2022-09-24T04:48:27;11.65;;;7.15;;
24457;SDS011;12629;50.860;5.714;2022-09-24T04:50:55;12.15;;;7.40;;
24457;SDS011;12629;50.860;5.714;2022-09-24T04:53:22;8.52;;;6.28;;
24457;SDS011;12629;50.860;5.714;2022-09-24T04:55:50;16.63;;;6.93;;
24457;SDS011;12629;50.860;5.714;2022-09-24T04:58:17;11.98;;;6.93;;
24457;SDS011;12629;50.860;5.714;2022-09-24T05:00:45;9.73;;;6.53;;
24457;SDS011;12629;50.860;5.714;2022-09-24T05:03:12;10.38;;;6.65;;
24457;SDS011;12629;50.860;5.714;2022-09-24T05:05:41;9.50;;;6.43;;
24457;SDS011;12629;50.860;5.714;2022-09-24T05:08:08;10.00;;;6.95;;
24457;SDS011;12629;50.860;5.714;2022-09-24T05:10:35;9.88;;;7.13;;
24457;SDS011;12629;50.860;5.714;2022-09-24T05:13:03;10.70;;;6.78;;
24457;SDS011;12629;50.860;5.714;2022-09-24T05:15:30;10.82;;;7.03;;
24457;SDS011;12629;50.860;5.714;2022-09-24T05:17:57;13.32;;;6.90;;
24457;SDS011;12629;50.860;5.714;2022-09-24T05:20:25;12.85;;;7.25;;
24457;SDS011;12629;50.860;5.714;2022-09-24T05:22:54;8.93;;;6.47;;
24457;SDS011;12629;50.860;5.714;2022-09-24T05:25:21;8.98;;;5.85;;
24457;SDS011;12629;50.860;5.714;2022-09-24T05:27:49;9.65;;;6.72;;
24457;SDS011;12629;50.860;5.714;2022-09-24T05:30:17;11.70;;;6.85;;
24457;SDS011;12629;50.860;5.714;2022-09-24T05:32:46;11.85;;;6.72;;
24457;SDS011;12629;50.860;5.714;2022-09-24T05:35:16;9.63;;;6.22;;
24457;SDS011;12629;50.860;5.714;2022-09-24T05:37:44;11.38;;;6.18;;
24457;SDS011;12629;50.860;5.714;2022-09-24T05:40:15;13.77;;;6.95;;
24457;SDS011;12629;50.860;5.714;2022-09-24T05:43:00;12.55;;;6.85;;
24457;SDS011;12629;50.860;5.714;2022-09-24T05:45:27;10.52;;;6.45;;
24457;SDS011;12629;50.860;5.714;2022-09-24T05:47:54;15.85;;;6.82;;
24457;SDS011;12629;50.860;5.714;2022-09-24T05:50:24;11.25;;;6.47;;
24457;SDS011;12629;50.860;5.714;2022-09-24T05:52:51;12.05;;;6.50;;
24457;SDS011;12629;50.860;5.714;2022-09-24T05:55:20;11.77;;;6.38;;
24457;SDS011;12629;50.860;5.714;2022-09-24T05:57:47;12.60;;;6.85;;
24457;SDS011;12629;50.860;5.714;2022-09-24T06:00:14;10.88;;;6.55;;
24457;SDS011;12629;50.860;5.714;2022-09-24T06:02:42;9.68;;;5.80;;
24457;SDS011;12629;50.860;5.714;2022-09-24T06:05:09;11.20;;;5.60;;
24457;SDS011;12629;50.860;5.714;2022-09-24T06:07:37;10.60;;;6.03;;
24457;SDS011;12629;50.860;5.714;2022-09-24T06:10:05;9.52;;;6.03;;
24457;SDS011;12629;50.860;5.714;2022-09-24T06:12:34;9.85;;;5.70;;
24457;SDS011;12629;50.860;5.714;2022-09-24T06:15:01;12.27;;;6.28;;
24457;SDS011;12629;50.860;5.714;2022-09-24T06:17:29;9.70;;;6.03;;
24457;SDS011;12629;50.860;5.714;2022-09-24T06:19:56;11.05;;;6.25;;
24457;SDS011;12629;50.860;5.714;2022-09-24T06:22:24;12.35;;;6.38;;
24457;SDS011;12629;50.860;5.714;2022-09-24T06:24:51;9.43;;;6.20;;
24457;SDS011;12629;50.860;5.714;2022-09-24T06:27:18;7.32;;;5.57;;
24457;SDS011;12629;50.860;5.714;2022-09-24T06:29:47;11.77;;;6.35;;
24457;SDS011;12629;50.860;5.714;2022-09-24T06:32:14;11.65;;;6.45;;
24457;SDS011;12629;50.860;5.714;2022-09-24T06:34:41;8.80;;;6.47;;
24457;SDS011;12629;50.860;5.714;2022-09-24T06:37:09;9.43;;;6.38;;
24457;SDS011;12629;50.860;5.714;2022-09-24T06:39:36;9.02;;;5.72;;
24457;SDS011;12629;50.860;5.714;2022-09-24T06:42:04;12.90;;;6.60;;
24457;SDS011;12629;50.860;5.714;2022-09-24T06:44:32;10.25;;;6.20;;
24457;SDS011;12629;50.860;5.714;2022-09-24T06:47:01;11.25;;;6.35;;
24457;SDS011;12629;50.860;5.714;2022-09-24T06:49:28;12.35;;;5.80;;
24457;SDS011;12629;50.860;5.714;2022-09-24T06:51:56;11.27;;;6.18;;
24457;SDS011;12629;50.860;5.714;2022-09-24T06:54:23;11.70;;;6.25;;
24457;SDS011;12629;50.860;5.714;2022-09-24T06:56:50;9.85;;;6.28;;
24457;SDS011;12629;50.860;5.714;2022-09-24T06:59:18;9.68;;;6.28;;
24457;SDS011;12629;50.860;5.714;2022-09-24T07:01:45;13.55;;;6.60;;
24457;SDS011;12629;50.860;5.714;2022-09-24T07:04:14;13.02;;;6.57;;
24457;SDS011;12629;50.860;5.714;2022-09-24T07:06:41;13.70;;;6.32;;
24457;SDS011;12629;50.860;5.714;2022-09-24T07:09:26;14.82;;;6.88;;
24457;SDS011;12629;50.860;5.714;2022-09-24T07:11:53;12.00;;;6.03;;
24457;SDS011;12629;50.860;5.714;2022-09-24T07:14:22;10.10;;;6.15;;
24457;SDS011;12629;50.860;5.714;2022-09-24T07:16:49;13.70;;;6.88;;
24457;SDS011;12629;50.860;5.714;2022-09-24T07:19:19;13.23;;;6.53;;
24457;SDS011;12629;50.860;5.714;2022-09-24T07:21:47;11.02;;;5.88;;
24457;SDS011;12629;50.860;5.714;2022-09-24T07:24:14;12.93;;;6.78;;
24457;SDS011;12629;50.860;5.714;2022-09-24T07:26:41;9.40;;;6.45;;
24457;SDS011;12629;50.860;5.714;2022-09-24T07:29:09;9.98;;;6.50;;
24457;SDS011;12629;50.860;5.714;2022-09-24T07:31:36;12.18;;;6.75;;
24457;SDS011;12629;50.860;5.714;2022-09-24T07:34:05;14.40;;;6.13;;
24457;SDS011;12629;50.860;5.714;2022-09-24T07:36:34;11.75;;;6.13;;
24457;SDS011;12629;50.860;5.714;2022-09-24T07:39:02;10.30;;;6.22;;
24457;SDS011;12629;50.860;5.714;2022-09-24T07:41:29;11.43;;;6.72;;
24457;SDS011;12629;50.860;5.714;2022-09-24T07:43:57;12.80;;;6.15;;
24457;SDS011;12629;50.860;5.714;2022-09-24T07:46:24;11.27;;;5.93;;
24457;SDS011;12629;50.860;5.714;2022-09-24T07:48:52;13.35;;;6.13;;
24457;SDS011;12629;50.860;5.714;2022-09-24T07:51:20;12.60;;;6.35;;
24457;SDS011;12629;50.860;5.714;2022-09-24T07:53:49;13.50;;;7.00;;
24457;SDS011;12629;50.860;5.714;2022-09-24T07:56:17;11.70;;;6.20;;
24457;SDS011;12629;50.860;5.714;2022-09-24T07:58:47;10.38;;;6.25;;
24457;SDS011;12629;50.860;5.714;2022-09-24T08:01:15;9.38;;;6.32;;
24457;SDS011;12629;50.860;5.714;2022-09-24T08:03:42;12.88;;;6.53;;
24457;SDS011;12629;50.860;5.714;2022-09-24T08:06:10;12.48;;;6.78;;
24457;SDS011;12629;50.860;5.714;2022-09-24T08:08:38;12.23;;;6.32;;
24457;SDS011;12629;50.860;5.714;2022-09-24T08:11:08;12.10;;;6.55;;
24457;SDS011;12629;50.860;5.714;2022-09-24T08:13:36;13.35;;;6.85;;
24457;SDS011;12629;50.860;5.714;2022-09-24T08:16:04;12.50;;;6.90;;
24457;SDS011;12629;50.860;5.714;2022-09-24T08:18:32;11.93;;;6.95;;
24457;SDS011;12629;50.860;5.714;2022-09-24T08:21:02;12.80;;;6.70;;
24457;SDS011;12629;50.860;5.714;2022-09-24T08:23:30;10.32;;;6.90;;
24457;SDS011;12629;50.860;5.714;2022-09-24T08:25:58;10.93;;;6.35;;
24457;SDS011;12629;50.860;5.714;2022-09-24T08:28:27;13.60;;;6.90;;
24457;SDS011;12629;50.860;5.714;2022-09-24T08:30:56;13.27;;;7.05;;
24457;SDS011;12629;50.860;5.714;2022-09-24T08:33:25;10.68;;;7.00;;
24457;SDS011;12629;50.860;5.714;2022-09-24T08:35:52;10.32;;;6.30;;
24457;SDS011;12629;50.860;5.714;2022-09-24T08:38:20;10.55;;;6.70;;
24457;SDS011;12629;50.860;5.714;2022-09-24T08:40:50;13.60;;;7.35;;
24457;SDS011;12629;50.860;5.714;2022-09-24T08:43:26;12.68;;;7.03;;
24457;SDS011;12629;50.860;5.714;2022-09-24T08:46:07;10.55;;;6.90;;
24457;SDS011;12629;50.860;5.714;2022-09-24T08:48:56;11.32;;;7.28;;
24457;SDS011;12629;50.860;5.714;2022-09-24T08:51:25;11.80;;;7.03;;
24457;SDS011;12629;50.860;5.714;2022-09-24T08:54:01;9.93;;;6.72;;
24457;SDS011;12629;50.860;5.714;2022-09-24T08:56:34;11.27;;;6.70;;
24457;SDS011;12629;50.860;5.714;2022-09-24T08:59:08;11.13;;;6.47;;
24457;SDS011;12629;50.860;5.714;2022-09-24T09:01:48;12.02;;;6.55;;
24457;SDS011;12629;50.860;5.714;2022-09-24T09:04:23;12.05;;;7.40;;
24457;SDS011;12629;50.860;5.714;2022-09-24T09:06:56;11.85;;;7.13;;
24457;SDS011;12629;50.860;5.714;2022-09-24T09:09:44;9.60;;;6.80;;
24457;SDS011;12629;50.860;5.714;2022-09-24T09:12:16;10.52;;;6.60;;
24457;SDS011;12629;50.860;5.714;2022-09-24T09:14:50;9.27;;;6.20;;
24457;SDS011;12629;50.860;5.714;2022-09-24T09:17:28;9.10;;;5.93;;
24457;SDS011;12629;50.860;5.714;2022-09-24T09:20:00;12.73;;;6.78;;
24457;SDS011;12629;50.860;5.714;2022-09-24T09:22:33;10.02;;;6.75;;
24457;SDS011;12629;50.860;5.714;2022-09-24T09:25:10;10.13;;;7.03;;
24457;SDS011;12629;50.860;5.714;2022-09-24T09:27:43;10.60;;;6.80;;
24457;SDS011;12629;50.860;5.714;2022-09-24T09:30:15;9.88;;;6.28;;
24457;SDS011;12629;50.860;5.714;2022-09-24T09:32:50;11.18;;;6.93;;
24457;SDS011;12629;50.860;5.714;2022-09-24T09:35:31;9.43;;;6.63;;
24457;SDS011;12629;50.860;5.714;2022-09-24T09:38:10;9.80;;;7.03;;
24457;SDS011;12629;50.860;5.714;2022-09-24T09:40:47;11.20;;;6.85;;
24457;SDS011;12629;50.860;5.714;2022-09-24T09:43:23;10.73;;;6.75;;
24457;SDS011;12629;50.860;5.714;2022-09-24T09:45:56;10.73;;;6.88;;
